Time;durP1;ratioP1;P1;durP2;ratioP2;P2;SDS_P1;SDS_P2;PMS_P1;PMS_P2;Temp;Humidity;BMP_temperature;BMP_pressure;BME280_temperature;BME280_humidity;BME280_pressure;Samples;Min_cycle;Max_cycle;Signal;HPM_P1;HPM_P2
2022/05/07 00:02:24;;;;;;;26.13;20.47;;;;;12.90;101822.00;;;;10410886;28;20226;-79
2022/05/07 00:07:27;;;;;;;24.30;20.33;;;;;12.80;101814.00;;;;10420908;28;20186;-79
2022/05/07 00:12:29;;;;;;;22.60;17.63;;;;;12.70;101814.00;;;;10404134;28;20210;-79
2022/05/07 00:22:52;;;;;;;23.90;19.13;;;;;12.60;101813.00;;;;10411136;28;20218;-79
2022/05/07 00:27:54;;;;;;;29.93;20.77;;;;;12.60;101820.00;;;;10442675;28;20202;-79
2022/05/07 00:32:56;;;;;;;27.73;20.33;;;;;12.50;101813.00;;;;10442998;28;20281;-78
2022/05/07 00:37:57;;;;;;;23.57;20.67;;;;;12.50;101808.00;;;;10426695;28;20190;-79
2022/05/07 00:42:59;;;;;;;26.33;19.90;;;;;12.30;101806.00;;;;10410284;28;20620;-79
2022/05/07 00:48:02;;;;;;;25.23;20.23;;;;;12.30;101805.00;;;;10446078;28;20525;-79
2022/05/07 00:53:05;;;;;;;27.43;21.07;;;;;12.30;101804.00;;;;10467540;28;20205;-78
2022/05/07 00:58:07;;;;;;;31.63;20.20;;;;;12.30;101797.00;;;;10380205;28;20199;-79
2022/05/07 01:03:09;;;;;;;23.23;19.50;;;;;12.30;101795.00;;;;10450061;28;20252;-79
2022/05/07 01:08:12;;;;;;;26.73;20.53;;;;;12.40;101794.00;;;;10467487;28;20223;-79
2022/05/07 01:13:18;;;;;;;28.00;20.13;;;;;12.50;101793.00;;;;10451146;28;20193;-79
2022/05/07 01:18:21;;;;;;;29.13;19.73;;;;;12.60;101779.00;;;;10457002;28;20623;-79
2022/05/07 01:23:25;;;;;;;27.30;19.63;;;;;12.60;101784.00;;;;10394410;28;20305;-79
2022/05/07 01:28:28;;;;;;;24.57;18.97;;;;;12.70;101772.00;;;;10440626;28;20261;-79
2022/05/07 01:33:34;;;;;;;26.37;20.70;;;;;12.80;101788.00;;;;10426334;28;20217;-79
2022/05/07 01:38:40;;;;;;;27.83;19.87;;;;;12.90;101785.00;;;;10424482;28;20218;-78
2022/05/07 01:43:42;;;;;;;28.63;21.20;;;;;12.90;101777.00;;;;10425336;28;20202;-79
2022/05/07 01:48:46;;;;;;;25.83;19.07;;;;;13.00;101783.00;;;;10402581;28;20195;-79
2022/05/07 01:53:49;;;;;;;24.50;17.97;;;;;13.00;101775.00;;;;10382527;28;20934;-79
2022/05/07 01:58:52;;;;;;;19.60;17.50;;;;;13.00;101775.00;;;;10433483;28;20214;-79
2022/05/07 02:03:54;;;;;;;26.13;17.57;;;;;13.00;101777.00;;;;10437571;28;20922;-80
2022/05/07 02:09:00;;;;;;;20.70;15.20;;;;;13.00;101765.00;;;;10366154;28;20211;-79
2022/05/07 02:14:07;;;;;;;21.13;13.93;;;;;13.10;101766.00;;;;10398166;28;20770;-80
2022/05/07 02:19:09;;;;;;;17.20;12.77;;;;;13.20;101772.00;;;;10399149;28;20211;-79
2022/05/07 02:24:11;;;;;;;17.63;12.37;;;;;13.20;101763.00;;;;10381068;28;20209;-79
2022/05/07 02:29:14;;;;;;;16.60;12.63;;;;;13.20;101771.00;;;;10386552;28;20206;-79
2022/05/07 02:34:18;;;;;;;15.57;10.43;;;;;13.20;101763.00;;;;10405233;28;20193;-79
2022/05/07 02:39:21;;;;;;;13.77;8.67;;;;;13.20;101768.00;;;;10383005;28;20223;-79
2022/05/07 02:44:23;;;;;;;12.77;8.03;;;;;13.20;101764.00;;;;10401631;28;20218;-79
2022/05/07 02:49:26;;;;;;;9.53;7.07;;;;;13.20;101764.00;;;;10477236;28;20193;-78
2022/05/07 02:54:29;;;;;;;10.10;6.60;;;;;13.20;101773.00;;;;10437469;28;20226;-80
2022/05/07 02:59:32;;;;;;;11.47;6.83;;;;;13.30;101769.00;;;;10399455;28;20278;-79
2022/05/07 03:04:34;;;;;;;10.60;6.43;;;;;13.30;101777.00;;;;10421100;28;20210;-79
2022/05/07 03:09:36;;;;;;;8.53;6.10;;;;;13.30;101774.00;;;;10422354;28;20676;-79
2022/05/07 03:14:40;;;;;;;9.93;6.60;;;;;13.00;101773.00;;;;10405047;28;20198;-79
2022/05/07 03:19:42;;;;;;;12.57;7.70;;;;;12.60;101777.00;;;;10403066;28;20230;-80
2022/05/07 03:24:44;;;;;;;11.37;6.73;;;;;12.30;101778.00;;;;10421393;28;20194;-80
2022/05/07 03:29:47;;;;;;;11.83;7.43;;;;;12.20;101775.00;;;;10436483;28;20206;-80
2022/05/07 03:34:56;;;;;;;11.50;7.50;;;;;12.10;101788.00;;;;10403557;28;20237;-80
2022/05/07 03:39:59;;;;;;;11.60;8.27;;;;;12.10;101799.00;;;;10419795;28;20206;-79
2022/05/07 03:45:03;;;;;;;16.43;7.97;;;;;12.10;101799.00;;;;10421118;28;20322;-80
2022/05/07 03:50:09;;;;;;;14.80;8.90;;;;;12.10;101790.00;;;;10424750;28;20261;-81
2022/05/07 03:55:13;;;;;;;11.10;9.07;;;;;12.00;101792.00;;;;10428794;28;21015;-80
2022/05/07 04:00:16;;;;;;;16.57;10.13;;;;;12.00;101796.00;;;;10428636;28;20222;-81
2022/05/07 04:05:24;;;;;;;16.80;10.47;;;;;12.00;101794.00;;;;10443249;28;20229;-80
2022/05/07 04:10:29;;;;;;;15.67;10.03;;;;;11.90;101801.00;;;;10412253;28;20202;-81
2022/05/07 04:15:32;;;;;;;15.23;10.33;;;;;11.90;101795.00;;;;10410847;28;20202;-79
2022/05/07 04:20:37;;;;;;;13.43;9.63;;;;;11.90;101795.00;;;;10427378;28;20222;-80
2022/05/07 04:25:44;;;;;;;21.43;10.67;;;;;11.90;101800.00;;;;10442643;28;20202;-80
2022/05/07 04:30:50;;;;;;;17.87;11.13;;;;;11.90;101802.00;;;;10445928;28;20271;-80
2022/05/07 04:35:57;;;;;;;15.83;10.27;;;;;11.90;101808.00;;;;10410930;28;20198;-79
2022/05/07 04:41:01;;;;;;;19.00;10.53;;;;;12.00;101809.00;;;;10410823;28;20313;-80
2022/05/07 04:46:05;;;;;;;28.50;10.67;;;;;12.10;101812.00;;;;10425014;28;20202;-80
2022/05/07 04:51:09;;;;;;;21.53;11.80;;;;;12.20;101813.00;;;;10408438;28;20633;-80
2022/05/07 04:56:41;;;;;;;21.60;12.33;;;;;12.30;101818.00;;;;10375189;28;20206;-79
2022/05/07 05:01:43;;;;;;;20.87;11.97;;;;;12.40;101822.00;;;;10418787;28;20316;-80
2022/05/07 05:06:48;;;;;;;22.53;11.43;;;;;12.50;101814.00;;;;10388987;28;20241;-80
2022/05/07 05:11:53;;;;;;;18.47;11.57;;;;;12.60;101828.00;;;;10408297;28;20210;-79
2022/05/07 05:16:56;;;;;;;20.27;12.67;;;;;12.70;101825.00;;;;10425017;28;20245;-79
2022/05/07 05:21:59;;;;;;;19.50;12.87;;;;;12.80;101823.00;;;;10425174;28;20313;-80
2022/05/07 05:27:06;;;;;;;23.73;13.23;;;;;13.10;101830.00;;;;10409786;28;20198;-80
2022/05/07 05:32:19;;;;;;;19.50;12.03;;;;;13.30;101826.00;;;;10439582;28;20217;-80
2022/05/07 05:37:30;;;;;;;26.50;14.57;;;;;13.50;101837.00;;;;10424339;28;20195;-80
2022/05/07 05:42:32;;;;;;;25.73;16.33;;;;;13.60;101841.00;;;;10424245;28;20820;-80
2022/05/07 05:47:35;;;;;;;23.63;14.47;;;;;13.70;101845.00;;;;10425028;28;20190;-80
2022/05/07 05:52:38;;;;;;;24.83;15.20;;;;;13.90;101844.00;;;;10440719;28;20190;-80
2022/05/07 05:57:41;;;;;;;23.97;15.00;;;;;14.00;101854.00;;;;10424826;28;20255;-79
2022/05/07 06:02:44;;;;;;;28.03;16.13;;;;;14.10;101846.00;;;;10429212;28;20226;-79
2022/05/07 06:07:57;;;;;;;26.90;16.20;;;;;14.10;101847.00;;;;10406683;28;20213;-80
2022/05/07 06:13:08;;;;;;;25.33;15.70;;;;;14.20;101849.00;;;;10392725;28;20202;-80
2022/05/07 06:18:16;;;;;;;24.03;15.27;;;;;14.40;101851.00;;;;10407005;28;20194;-80
2022/05/07 06:23:18;;;;;;;30.47;17.67;;;;;14.60;101856.00;;;;10422352;28;20647;-80
2022/05/07 06:28:23;;;;;;;23.73;16.53;;;;;14.90;101870.00;;;;10422219;28;20194;-80
2022/05/07 06:33:28;;;;;;;28.43;16.73;;;;;15.10;101873.00;;;;10408007;28;20210;-80
2022/05/07 06:38:35;;;;;;;28.23;17.83;;;;;15.00;101876.00;;;;10420982;28;20198;-81
2022/05/07 06:43:38;;;;;;;33.70;18.17;;;;;14.40;101871.00;;;;10421235;28;20326;-81
2022/05/07 06:48:43;;;;;;;36.00;18.73;;;;;14.40;101870.00;;;;10421775;28;20216;-80
2022/05/07 06:53:54;;;;;;;31.43;19.07;;;;;14.70;101882.00;;;;10393211;28;20205;-81
2022/05/07 06:58:58;;;;;;;32.70;19.47;;;;;15.10;101884.00;;;;10416389;28;20250;-80
2022/05/07 07:04:01;;;;;;;36.63;19.60;;;;;15.30;101877.00;;;;10440078;28;20230;-80
2022/05/07 07:09:03;;;;;;;33.40;20.03;;;;;15.60;101886.00;;;;10429009;28;20237;-80
2022/05/07 07:14:05;;;;;;;32.73;20.10;;;;;15.70;101887.00;;;;10405180;28;20680;-79
2022/05/07 07:19:07;;;;;;;37.07;20.50;;;;;15.90;101882.00;;;;10421028;28;20205;-81
2022/05/07 07:24:09;;;;;;;24.93;17.67;;;;;16.40;101883.00;;;;10435423;28;20275;-81
2022/05/07 07:29:11;;;;;;;28.67;18.03;;;;;17.10;101882.00;;;;10421014;28;20259;-81
2022/05/07 07:34:13;;;;;;;27.80;17.60;;;;;17.70;101878.00;;;;10437424;28;20676;-81
2022/05/07 07:39:16;;;;;;;31.42;19.52;;;;;17.40;101878.00;;;;10405542;28;20248;-80
2022/05/07 07:44:18;;;;;;;29.87;19.23;;;;;17.40;101881.00;;;;10438456;28;20193;-80
2022/05/07 07:49:20;;;;;;;24.90;18.40;;;;;18.20;101875.00;;;;10440935;28;20285;-82
2022/05/07 07:54:22;;;;;;;27.13;18.65;;;;;18.90;101889.00;;;;10438065;28;20790;-81
2022/05/07 07:59:24;;;;;;;28.10;18.13;;;;;18.50;101892.00;;;;10406269;28;20206;-81
2022/05/07 08:04:26;;;;;;;28.95;18.15;;;;;18.10;101882.00;;;;10459198;28;20271;-80
2022/05/07 08:14:48;;;;;;;31.08;18.95;;;;;19.50;101870.00;;;;10462493;28;20654;-81
2022/05/07 08:19:50;;;;;;;29.55;18.98;;;;;20.90;101857.00;;;;10479442;28;20210;-79
2022/05/07 08:24:52;;;;;;;27.23;18.70;;;;;22.30;101873.00;;;;10435251;28;20202;-79
2022/05/07 08:29:55;;;;;;;31.88;18.83;;;;;23.50;101878.00;;;;10431380;28;20222;-79
2022/05/07 08:34:58;;;;;;;29.58;19.50;;;;;24.40;101865.00;;;;10418148;28;20241;-79
2022/05/07 08:40:01;;;;;;;33.17;20.50;;;;;25.60;101865.00;;;;10425657;28;20723;-79
2022/05/07 08:45:05;;;;;;;26.08;19.85;;;;;26.00;101865.00;;;;10452437;28;20201;-80
2022/05/07 08:50:08;;;;;;;31.50;20.50;;;;;26.80;101871.00;;;;10485121;28;20192;-80
2022/05/07 08:55:15;;;;;;;25.10;19.65;;;;;26.00;101874.00;;;;10415457;28;20245;-80
2022/05/07 09:00:23;;;;;;;25.92;20.10;;;;;25.40;101870.00;;;;10426445;28;20226;-80
2022/05/07 09:05:37;;;;;;;25.85;19.35;;;;;25.10;101872.00;;;;10467456;28;20256;-80
2022/05/07 09:10:40;;;;;;;27.55;19.60;;;;;25.80;101864.00;;;;10429538;28;20226;-80
2022/05/07 09:15:55;;;;;;;25.52;18.48;;;;;26.60;101862.00;;;;10401952;28;20286;-80
2022/05/07 09:21:16;;;;;;;26.73;19.33;;;;;26.30;101861.00;;;;10385383;28;20647;-80
2022/05/07 09:26:32;;;;;;;22.13;17.48;;;;;27.50;101853.00;;;;10415957;28;20201;-80
2022/05/07 09:31:35;;;;;;;27.30;17.58;;;;;27.00;101865.00;;;;10440430;28;20433;-80
2022/05/07 09:36:38;;;;;;;25.60;18.83;;;;;26.40;101863.00;;;;10457050;28;20202;-80
2022/05/07 09:41:42;;;;;;;22.42;16.63;;;;;26.10;101858.00;;;;10441565;28;20239;-79
2022/05/07 09:46:45;;;;;;;25.02;18.05;;;;;26.50;101860.00;;;;10424039;28;20198;-80
2022/05/07 09:51:47;;;;;;;24.48;16.80;;;;;27.10;101857.00;;;;10408158;28;20825;-79
2022/05/07 10:02:49;;;;;;;22.52;14.50;;;;;24.00;101873.00;;;;10405983;28;20252;-80
2022/05/07 10:08:15;;;;;;;21.85;15.70;;;;;23.90;101851.00;;;;10423771;28;20209;-80
2022/05/07 10:13:18;;;;;;;21.70;15.48;;;;;24.40;101859.00;;;;10404637;28;20206;-81
2022/05/07 10:18:20;;;;;;;31.40;17.77;;;;;24.40;101865.00;;;;10418178;28;20649;-79
2022/05/07 10:23:28;;;;;;;23.10;15.57;;;;;24.80;101876.00;;;;10403107;28;20275;-79
2022/05/07 10:28:41;;;;;;;21.42;15.60;;;;;24.60;101877.00;;;;10405058;28;20225;-80
2022/05/07 10:33:43;;;;;;;22.60;16.15;;;;;24.80;101865.00;;;;10411884;28;20193;-80
2022/05/07 10:38:46;;;;;;;20.55;15.20;;;;;26.00;101862.00;;;;10429262;28;20274;-79
2022/05/07 10:44:09;;;;;;;17.98;13.73;;;;;25.90;101848.00;;;;10396907;28;20313;-79
2022/05/07 10:49:11;;;;;;;24.10;16.02;;;;;26.00;101849.00;;;;10439479;28;20241;-80
2022/05/07 10:54:22;;;;;;;25.30;18.35;;;;;26.10;101856.00;;;;10428078;28;20237;-80
2022/05/07 10:59:26;;;;;;;24.65;17.88;;;;;25.80;101857.00;;;;10387807;28;20223;-79
2022/05/07 11:04:28;;;;;;;27.17;19.00;;;;;26.40;101854.00;;;;10425813;28;20225;-79
2022/05/07 11:09:31;;;;;;;21.10;16.65;;;;;27.00;101857.00;;;;10408269;28;20667;-80
2022/05/07 11:14:35;;;;;;;30.23;16.35;;;;;27.50;101855.00;;;;10421061;28;20698;-80
2022/05/07 11:19:38;;;;;;;20.23;16.58;;;;;27.70;101850.00;;;;10438016;28;20241;-80
2022/05/07 11:24:40;;;;;;;20.13;16.90;;;;;26.30;101838.00;;;;10421460;28;20224;-80
2022/05/07 11:29:42;;;;;;;22.10;16.38;;;;;27.30;101836.00;;;;10427206;28;20725;-80
2022/05/07 11:34:46;;;;;;;23.40;17.50;;;;;28.60;101835.00;;;;10446795;28;20197;-79
2022/05/07 11:39:56;;;;;;;19.77;15.65;;;;;29.70;101832.00;;;;10399841;28;20222;-79
2022/05/07 11:50:42;;;;;;;18.55;14.45;;;;;25.90;101832.00;;;;10338513;28;20195;-80
2022/05/07 11:55:45;;;;;;;15.85;11.05;;;;;24.90;101837.00;;;;10406049;28;20202;-80
2022/05/07 12:00:50;;;;;;;12.95;9.45;;;;;23.90;101822.00;;;;10451690;28;20311;-80
2022/05/07 12:05:56;;;;;;;13.95;10.18;;;;;23.40;101830.00;;;;10445330;28;20224;-80
2022/05/07 12:10:59;;;;;;;14.38;8.68;;;;;23.50;101828.00;;;;10446965;28;20205;-80
2022/05/07 12:29:48;;;;;;;9.05;7.90;;;;;27.20;101820.00;;;;10429691;28;20256;-79
2022/05/07 12:32:05;;;;;;;11.65;6.43;;;;;25.60;101817.00;;;;10398115;28;20209;-80
2022/05/07 12:37:07;;;;;;;9.38;6.13;;;;;27.10;101814.00;;;;10426123;28;20209;-80
2022/05/07 12:42:15;;;;;;;9.93;5.13;;;;;28.20;101806.00;;;;10426906;28;20229;-81
2022/05/07 12:47:18;;;;;;;8.30;6.00;;;;;26.20;101808.00;;;;10425356;28;20198;-80
2022/05/07 12:52:22;;;;;;;7.22;5.40;;;;;24.50;101815.00;;;;10391271;28;20671;-80
2022/05/07 12:57:24;;;;;;;10.25;6.07;;;;;23.40;101806.00;;;;10441352;28;20805;-79
2022/05/07 13:02:26;;;;;;;9.35;6.75;;;;;23.00;101810.00;;;;10423604;28;20228;-79
2022/05/07 13:07:28;;;;;;;6.97;6.25;;;;;22.80;101814.00;;;;10443274;28;20264;-80
2022/05/07 13:12:30;;;;;;;7.00;5.30;;;;;22.70;101818.00;;;;10399678;28;20198;-80
2022/05/07 13:17:31;;;;;;;6.75;5.57;;;;;22.90;101819.00;;;;10425534;28;20201;-80
2022/05/07 13:22:33;;;;;;;5.90;5.30;;;;;22.90;101814.00;;;;10406841;28;20252;-80
2022/05/07 13:27:35;;;;;;;11.40;6.22;;;;;22.90;101800.00;;;;10423585;28;20197;-79
2022/05/07 13:32:37;;;;;;;10.20;7.28;;;;;22.90;101797.00;;;;10417447;28;20830;-79
2022/05/07 13:37:40;;;;;;;8.77;6.88;;;;;23.30;101802.00;;;;10401097;28;20257;-80
2022/05/07 13:42:42;;;;;;;10.63;6.97;;;;;24.10;101806.00;;;;10381617;28;20218;-79
2022/05/07 13:47:44;;;;;;;11.25;6.60;;;;;24.10;101805.00;;;;10366852;28;20207;-79
2022/05/07 13:52:46;;;;;;;7.20;5.93;;;;;25.60;101809.00;;;;10391599;28;20202;-79
2022/05/07 13:57:48;;;;;;;6.75;5.57;;;;;24.90;101803.00;;;;10399875;28;20202;-79
2022/05/07 14:02:50;;;;;;;7.45;6.40;;;;;24.40;101815.00;;;;10438702;28;20238;-80
2022/05/07 14:07:52;;;;;;;9.23;5.88;;;;;24.40;101806.00;;;;10438445;28;20202;-79
2022/05/07 14:12:53;;;;;;;9.10;6.80;;;;;24.50;101813.00;;;;10423257;28;20301;-79
2022/05/07 14:17:55;;;;;;;9.32;6.53;;;;;25.50;101812.00;;;;10394682;28;20210;-80
2022/05/07 14:22:59;;;;;;;9.52;7.22;;;;;25.10;101807.00;;;;10418183;28;20222;-80
2022/05/07 14:28:01;;;;;;;9.93;8.38;;;;;25.40;101793.00;;;;10412385;28;20205;-80
2022/05/07 14:33:06;;;;;;;9.10;7.18;;;;;24.10;101800.00;;;;10421649;28;20601;-80
2022/05/07 14:38:10;;;;;;;11.18;7.53;;;;;23.10;101805.00;;;;10422655;28;20194;-79
2022/05/07 14:43:12;;;;;;;11.65;7.30;;;;;22.60;101796.00;;;;10406063;28;20666;-79
2022/05/07 14:48:15;;;;;;;10.20;6.60;;;;;23.20;101803.00;;;;10458720;28;20197;-79
2022/05/07 14:53:17;;;;;;;7.38;5.00;;;;;23.10;101794.00;;;;10431674;28;20198;-78
2022/05/07 14:58:19;;;;;;;7.20;5.70;;;;;22.60;101800.00;;;;10402606;28;20198;-81
2022/05/07 15:03:21;;;;;;;10.07;5.65;;;;;22.70;101808.00;;;;10452034;28;20226;-79
2022/05/07 15:13:49;;;;;;;6.45;4.85;;;;;23.30;101806.00;;;;10463545;28;20850;-79
2022/05/07 15:18:51;;;;;;;7.10;5.75;;;;;22.90;101806.00;;;;10463478;28;20536;-80
2022/05/07 15:23:53;;;;;;;10.25;5.05;;;;;22.60;101795.00;;;;10392112;28;20218;-80
2022/05/07 15:28:55;;;;;;;5.40;4.78;;;;;22.80;101784.00;;;;10397632;28;20203;-78
2022/05/07 15:39:18;;;;;;;7.60;6.78;;;;;22.70;101790.00;;;;10402792;28;20189;-79
2022/05/07 15:44:20;;;;;;;8.65;6.22;;;;;22.50;101807.00;;;;10439113;28;20217;-79
2022/05/07 15:49:22;;;;;;;8.52;5.90;;;;;22.20;101807.00;;;;10448318;28;20252;-80
2022/05/07 15:54:25;;;;;;;7.35;5.28;;;;;22.20;101801.00;;;;10411941;28;20888;-79
2022/05/07 15:59:27;;;;;;;9.30;5.88;;;;;22.10;101797.00;;;;10427718;28;20226;-80
2022/05/07 16:04:29;;;;;;;7.03;5.38;;;;;22.00;101809.00;;;;10443086;28;20226;-79
2022/05/07 16:09:32;;;;;;;7.82;6.30;;;;;22.20;101793.00;;;;10443587;28;20568;-80
2022/05/07 16:14:34;;;;;;;7.30;6.38;;;;;22.10;101804.00;;;;10427686;28;20552;-79
2022/05/07 16:19:39;;;;;;;11.70;7.70;;;;;22.00;101796.00;;;;10444431;28;20194;-79
2022/05/07 16:25:00;;;;;;;9.68;6.60;;;;;21.90;101793.00;;;;10402910;28;20727;-78
2022/05/07 16:30:05;;;;;;;10.60;5.85;;;;;21.90;101803.00;;;;10429480;28;20204;-79
2022/05/07 16:35:07;;;;;;;8.27;6.15;;;;;22.00;101805.00;;;;10426966;28;20205;-79
2022/05/07 16:40:14;;;;;;;6.95;5.97;;;;;22.00;101812.00;;;;10420984;28;20675;-79
2022/05/07 16:45:16;;;;;;;7.80;5.70;;;;;22.00;101808.00;;;;10435784;28;20217;-79
2022/05/07 16:50:21;;;;;;;6.20;5.25;;;;;22.00;101806.00;;;;10450165;28;20607;-79
2022/05/07 16:55:23;;;;;;;10.20;5.20;;;;;21.80;101802.00;;;;10429745;28;20205;-78
2022/05/07 17:00:25;;;;;;;6.63;4.85;;;;;21.80;101811.00;;;;10425386;28;20198;-79
2022/05/07 17:05:31;;;;;;;6.82;4.40;;;;;21.40;101810.00;;;;10439041;28;20288;-78
2022/05/07 17:10:33;;;;;;;4.72;4.18;;;;;20.90;101811.00;;;;10440671;28;20201;-79
2022/05/07 17:15:35;;;;;;;7.07;4.03;;;;;20.40;101807.00;;;;10421567;28;20206;-80
2022/05/07 17:20:40;;;;;;;6.38;4.05;;;;;20.20;101806.00;;;;10405828;28;20198;-79
2022/05/07 17:25:42;;;;;;;7.35;4.18;;;;;20.10;101820.00;;;;10421048;28;20210;-79
2022/05/07 17:30:44;;;;;;;6.00;4.65;;;;;20.00;101823.00;;;;10400265;28;20255;-79
2022/05/07 17:35:47;;;;;;;7.35;5.72;;;;;19.90;101818.00;;;;10403559;28;20228;-79
2022/05/07 17:40:52;;;;;;;8.02;6.22;;;;;19.80;101822.00;;;;10441137;28;20277;-79
2022/05/07 17:46:01;;;;;;;13.50;9.35;;;;;19.60;101818.00;;;;10434382;28;20190;-78
2022/05/07 17:51:03;;;;;;;17.42;10.07;;;;;19.40;101823.00;;;;10455510;28;20229;-79
2022/05/07 17:56:06;;;;;;;14.05;9.55;;;;;19.40;101823.00;;;;10456572;28;20190;-78
2022/05/07 18:01:09;;;;;;;12.85;9.35;;;;;19.20;101835.00;;;;10440141;28;20308;-79
2022/05/07 18:06:16;;;;;;;11.32;8.50;;;;;19.10;101835.00;;;;10407410;28;20321;-79
2022/05/07 18:11:18;;;;;;;15.07;11.02;;;;;18.90;101840.00;;;;10438788;28;20279;-78
2022/05/07 18:16:21;;;;;;;12.95;9.32;;;;;18.70;101845.00;;;;10423093;28;20201;-79
2022/05/07 18:21:28;;;;;;;15.77;9.50;;;;;18.60;101861.00;;;;10422360;28;20684;-78
2022/05/07 18:26:31;;;;;;;11.75;9.00;;;;;18.40;101865.00;;;;10421014;28;20260;-78
2022/05/07 18:31:33;;;;;;;11.27;8.75;;;;;18.20;101856.00;;;;10441350;28;20264;-78
2022/05/07 18:47:16;;;;;;;10.80;8.13;;;;;17.50;101888.00;;;;10419866;28;20784;-79
2022/05/07 18:52:19;;;;;;;12.30;8.60;;;;;17.30;101884.00;;;;10418643;28;20209;-79
2022/05/07 19:02:41;;;;;;;12.82;8.57;;;;;16.80;101897.00;;;;10436940;28;20225;-80
2022/05/07 19:07:45;;;;;;;11.93;8.75;;;;;16.60;101895.00;;;;10409865;28;20293;-79
2022/05/07 19:12:50;;;;;;;14.82;10.20;;;;;16.40;101901.00;;;;10455205;28;20268;-79
2022/05/07 19:17:52;;;;;;;11.52;9.25;;;;;16.20;101903.00;;;;10437175;28;20232;-78
2022/05/07 19:22:54;;;;;;;15.00;10.37;;;;;15.90;101905.00;;;;10435212;28;20268;-79
2022/05/07 19:27:57;;;;;;;13.70;10.00;;;;;15.80;101919.00;;;;10420067;28;20205;-79
2022/05/07 19:33:04;;;;;;;13.33;10.23;;;;;15.60;101917.00;;;;10404135;28;20213;-80
2022/05/07 19:38:06;;;;;;;15.33;11.27;;;;;15.50;101938.00;;;;10419717;28;20864;-80
2022/05/07 19:43:08;;;;;;;16.13;10.43;;;;;15.30;101931.00;;;;10419668;28;20220;-78
2022/05/07 19:48:10;;;;;;;13.27;10.30;;;;;15.20;101944.00;;;;10386195;28;20205;-79
2022/05/07 19:53:12;;;;;;;21.30;11.17;;;;;15.10;101952.00;;;;10420373;28;20202;-79
2022/05/07 19:58:14;;;;;;;15.50;11.43;;;;;15.00;101959.00;;;;10404395;28;20225;-79
2022/05/07 20:03:16;;;;;;;15.83;12.70;;;;;14.90;101956.00;;;;10386997;28;20318;-79
2022/05/07 20:08:20;;;;;;;16.30;11.23;;;;;14.80;101955.00;;;;10415164;28;20631;-79
2022/05/07 20:13:22;;;;;;;16.60;11.53;;;;;14.70;101962.00;;;;10402032;28;20703;-79
2022/05/07 20:18:24;;;;;;;20.27;12.47;;;;;14.60;101966.00;;;;10386524;28;20263;-78
2022/05/07 20:23:25;;;;;;;19.93;13.20;;;;;14.50;101960.00;;;;10434840;28;20222;-78
2022/05/07 20:28:27;;;;;;;16.10;12.03;;;;;14.30;101979.00;;;;10418346;28;20233;-78
2022/05/07 20:33:30;;;;;;;16.23;12.47;;;;;14.30;101986.00;;;;10423617;28;20196;-80
2022/05/07 20:38:32;;;;;;;17.20;12.67;;;;;14.30;101983.00;;;;10413510;28;20378;-79
2022/05/07 20:48:57;;;;;;;22.03;14.50;;;;;13.90;101989.00;;;;10418286;28;20297;-78
2022/05/07 20:54:06;;;;;;;19.07;13.50;;;;;13.80;101990.00;;;;10409052;28;20194;-78
2022/05/07 20:59:09;;;;;;;21.80;16.30;;;;;13.70;101989.00;;;;10378654;28;20657;-78
2022/05/07 21:04:11;;;;;;;18.37;13.30;;;;;13.60;101988.00;;;;10429641;28;20222;-79
2022/05/07 21:09:13;;;;;;;19.00;14.07;;;;;13.50;101984.00;;;;10441292;28;20203;-78
2022/05/07 21:14:15;;;;;;;22.73;14.53;;;;;13.30;101987.00;;;;10440319;28;20190;-79
2022/05/07 21:19:17;;;;;;;22.00;15.23;;;;;13.20;101992.00;;;;10425218;28;20549;-78
2022/05/07 21:26:31;;;;;;;23.07;16.03;;;;;13.10;101995.00;;;;10408679;28;20256;-79
2022/05/07 21:29:41;;;;;;;26.23;17.20;;;;;13.00;102000.00;;;;10457389;28;20719;-79
2022/05/07 21:34:43;;;;;;;25.20;17.67;;;;;12.90;101999.00;;;;10440087;28;20661;-79
2022/05/07 21:39:45;;;;;;;27.23;17.77;;;;;12.80;101997.00;;;;10405655;28;20202;-79
2022/05/07 21:44:47;;;;;;;26.00;18.50;;;;;12.70;102005.00;;;;10422819;28;20234;-79
2022/05/07 21:49:49;;;;;;;30.33;18.87;;;;;12.60;102010.00;;;;10423727;28;20228;-78
2022/05/07 21:54:51;;;;;;;31.63;20.73;;;;;12.60;102008.00;;;;10415420;28;20235;-79
2022/05/07 21:59:53;;;;;;;28.33;21.73;;;;;12.50;102015.00;;;;10424144;28;20653;-79
2022/05/07 22:04:55;;;;;;;35.70;22.73;;;;;12.40;102011.00;;;;10430737;28;20244;-80
2022/05/07 22:09:57;;;;;;;34.03;24.07;;;;;12.30;102012.00;;;;10423144;28;20202;-79
2022/05/07 22:15:00;;;;;;;39.10;25.00;;;;;12.30;102018.00;;;;10390406;28;20252;-79
2022/05/07 22:20:02;;;;;;;39.90;24.83;;;;;12.20;102020.00;;;;10422657;28;20616;-80
2022/05/07 22:25:05;;;;;;;42.70;26.93;;;;;12.10;102026.00;;;;10404959;28;20222;-80
2022/05/07 22:30:08;;;;;;;41.20;27.10;;;;;12.10;102031.00;;;;10413062;28;20618;-80
2022/05/07 22:35:17;;;;;;;42.87;26.97;;;;;12.00;102027.00;;;;10463924;28;20205;-80
2022/05/07 22:40:19;;;;;;;42.13;28.20;;;;;12.00;102027.00;;;;10463671;28;20189;-79
2022/05/07 22:45:21;;;;;;;43.67;27.07;;;;;12.00;102036.00;;;;10463021;28;20880;-80
2022/05/07 22:50:23;;;;;;;48.37;28.43;;;;;11.90;102027.00;;;;10447133;28;20202;-80
2022/05/07 22:55:25;;;;;;;48.63;31.00;;;;;11.90;102036.00;;;;10388849;28;20723;-80
2022/05/07 23:00:27;;;;;;;53.60;32.53;;;;;11.80;102037.00;;;;10400993;28;20567;-80
2022/05/07 23:05:29;;;;;;;50.13;29.93;;;;;11.80;102037.00;;;;10462656;28;20217;-79
2022/05/07 23:10:31;;;;;;;55.47;31.90;;;;;11.80;102039.00;;;;10462150;28;20201;-79
2022/05/07 23:15:33;;;;;;;52.27;32.73;;;;;11.70;102031.00;;;;10461728;28;20530;-80
2022/05/07 23:20:36;;;;;;;55.97;33.20;;;;;11.70;102039.00;;;;10432164;28;20673;-80
2022/05/07 23:25:37;;;;;;;59.17;31.27;;;;;11.50;102037.00;;;;10412208;28;20221;-80
2022/05/07 23:30:39;;;;;;;55.03;33.10;;;;;11.40;102026.00;;;;10419183;28;20198;-79
2022/05/07 23:35:43;;;;;;;51.97;30.33;;;;;11.30;102030.00;;;;10420343;28;20213;-80
2022/05/07 23:40:47;;;;;;;54.07;30.27;;;;;11.20;102037.00;;;;10403914;28;20580;-80
2022/05/07 23:45:49;;;;;;;55.60;31.10;;;;;11.20;102045.00;;;;10454790;28;20217;-80
2022/05/07 23:50:51;;;;;;;54.33;31.67;;;;;11.20;102039.00;;;;10414866;28;20228;-79
2022/05/07 23:55:53;;;;;;;44.47;27.60;;;;;11.10;102037.00;;;;10376542;28;20214;-79
